Stewart Airport
CZST : rendu visible

Aérodrome :











RETROUVEZ-NOUS SUR...

 
LOGIN :

S'inscrire | Disclaimer

   EN    FR    IT 

 









Légende :    VFR   VFR Marginal   IFR   IFR Intensif   IFR Très Intensif
Visi : 
Plafond : 
>= 8 km
>= 3000ft
5 à 8 km
1000 à 3000 ft
1500m à 5 km
500 à 1000 ft
800 à 1500m
200 à 500 ft
< 800m
< 200 ft
Symboles :   Orages  Brouillard  Fortes neiges  Fortes précipitations  Vent > 20 kt






- Altitude de l'aérodrome : 24 ft
- Code IATA : ZST


CZST - Stewart

DERNIER METAR :
  • 110100Z 24005KT 200V290 10SM BKN060 13/10 A3013 RMK SC7 LAST STFD OBS/NEXT 111300Z/ SLP205

METARs EXPIRÉS :
  • 110000Z 22006KT 190V250 10SM BKN060 14/10 A3014 RMK SC7 CLIMAT 14.3/11.5/0.6 SLP209
  • 102300Z 19010KT 140V220 10SM BKN060 14/09 A3015 RMK SC7 VIRGA S SLP211

TAF N/A
FIR CZVR / Amérique du Nord



MET'MAP, la Météo Aéronautique d'un coup d'oeil ! - Copyright ORBIFLY Décembre 2007 - Disclaimer

ORBIFLY MET'MAP TEAM :

Programmation & Développement : Alexandra Zaïnal
Sur une idée originale de : Baudouin d'Aumeries
Assistance à la programmation : Marc-Olivier Méhu
Soutien technique & logistique : Manuel Goepfert

Contact : metmap@orbifly.com




SOURCES & CREDITS :

   NOAA       Earth
Advisory